sensor_id;sensor_type;location;lat;lon;timestamp;temperature;humidity
76996;DHT22;65929;49.062;10.338;2024-03-25T00:00:49;3.10;88.90
76996;DHT22;65929;49.062;10.338;2024-03-25T00:01:49;3.10;88.90
76996;DHT22;65929;49.062;10.338;2024-03-25T00:02:51;3.10;89.10
76996;DHT22;65929;49.062;10.338;2024-03-25T00:03:52;3.10;89.00
76996;DHT22;65929;49.062;10.338;2024-03-25T00:04:52;3.10;89.10
76996;DHT22;65929;49.062;10.338;2024-03-25T00:05:53;3.10;89.00
76996;DHT22;65929;49.062;10.338;2024-03-25T00:06:54;3.10;89.00
76996;DHT22;65929;49.062;10.338;2024-03-25T00:07:55;3.10;89.00
76996;DHT22;65929;49.062;10.338;2024-03-25T00:08:56;3.10;89.10
76996;DHT22;65929;49.062;10.338;2024-03-25T00:09:57;3.10;89.20
76996;DHT22;65929;49.062;10.338;2024-03-25T00:10:59;3.10;89.40
76996;DHT22;65929;49.062;10.338;2024-03-25T00:12:02;3.10;89.10
76996;DHT22;65929;49.062;10.338;2024-03-25T00:13:05;3.10;89.20
76996;DHT22;65929;49.062;10.338;2024-03-25T00:14:06;3.10;89.00
76996;DHT22;65929;49.062;10.338;2024-03-25T00:15:07;3.10;88.70
76996;DHT22;65929;49.062;10.338;2024-03-25T00:16:08;3.10;88.80
76996;DHT22;65929;49.062;10.338;2024-03-25T00:17:09;3.10;88.90
76996;DHT22;65929;49.062;10.338;2024-03-25T00:18:11;3.10;89.00
76996;DHT22;65929;49.062;10.338;2024-03-25T00:19:12;3.10;89.10
76996;DHT22;65929;49.062;10.338;2024-03-25T00:20:13;3.10;89.10
76996;DHT22;65929;49.062;10.338;2024-03-25T00:21:15;3.10;89.20
76996;DHT22;65929;49.062;10.338;2024-03-25T00:22:16;3.00;89.40
76996;DHT22;65929;49.062;10.338;2024-03-25T00:23:17;3.00;89.50
76996;DHT22;65929;49.062;10.338;2024-03-25T00:24:18;3.00;89.60
76996;DHT22;65929;49.062;10.338;2024-03-25T00:25:19;3.00;89.70
76996;DHT22;65929;49.062;10.338;2024-03-25T00:26:20;2.90;89.70
76996;DHT22;65929;49.062;10.338;2024-03-25T00:27:22;2.90;90.00
76996;DHT22;65929;49.062;10.338;2024-03-25T00:28:23;2.90;90.10
76996;DHT22;65929;49.062;10.338;2024-03-25T00:29:24;2.90;90.20
76996;DHT22;65929;49.062;10.338;2024-03-25T00:30:25;2.90;90.20
76996;DHT22;65929;49.062;10.338;2024-03-25T00:31:26;2.90;90.30
76996;DHT22;65929;49.062;10.338;2024-03-25T00:32:27;2.90;90.30
76996;DHT22;65929;49.062;10.338;2024-03-25T00:33:28;2.90;90.00
76996;DHT22;65929;49.062;10.338;2024-03-25T00:34:29;3.00;89.80
76996;DHT22;65929;49.062;10.338;2024-03-25T00:35:30;3.00;89.60
76996;DHT22;65929;49.062;10.338;2024-03-25T00:36:30;3.00;89.50
76996;DHT22;65929;49.062;10.338;2024-03-25T00:37:31;3.10;89.60
76996;DHT22;65929;49.062;10.338;2024-03-25T00:38:32;3.10;89.40
76996;DHT22;65929;49.062;10.338;2024-03-25T00:39:33;3.10;89.40
76996;DHT22;65929;49.062;10.338;2024-03-25T00:40:35;3.10;89.20
76996;DHT22;65929;49.062;10.338;2024-03-25T00:41:37;3.10;89.40
76996;DHT22;65929;49.062;10.338;2024-03-25T00:42:39;3.10;89.20
76996;DHT22;65929;49.062;10.338;2024-03-25T00:43:40;3.10;89.10
76996;DHT22;65929;49.062;10.338;2024-03-25T00:44:41;3.10;89.20
76996;DHT22;65929;49.062;10.338;2024-03-25T00:45:42;3.10;89.20
76996;DHT22;65929;49.062;10.338;2024-03-25T00:46:42;3.10;89.10
76996;DHT22;65929;49.062;10.338;2024-03-25T00:47:43;3.10;89.30
76996;DHT22;65929;49.062;10.338;2024-03-25T00:48:44;3.10;89.20
76996;DHT22;65929;49.062;10.338;2024-03-25T00:49:45;3.10;89.10
76996;DHT22;65929;49.062;10.338;2024-03-25T00:50:46;3.10;89.30
76996;DHT22;65929;49.062;10.338;2024-03-25T00:51:47;3.10;89.30
76996;DHT22;65929;49.062;10.338;2024-03-25T00:52:48;3.10;89.10
76996;DHT22;65929;49.062;10.338;2024-03-25T00:53:48;3.10;89.30
76996;DHT22;65929;49.062;10.338;2024-03-25T00:54:49;3.10;89.40
76996;DHT22;65929;49.062;10.338;2024-03-25T00:55:50;3.10;89.50
76996;DHT22;65929;49.062;10.338;2024-03-25T00:56:52;3.10;89.70
76996;DHT22;65929;49.062;10.338;2024-03-25T00:57:55;3.10;89.60
76996;DHT22;65929;49.062;10.338;2024-03-25T00:58:56;3.10;89.50
76996;DHT22;65929;49.062;10.338;2024-03-25T00:59:58;3.10;89.40
76996;DHT22;65929;49.062;10.338;2024-03-25T01:00:59;3.10;89.40
76996;DHT22;65929;49.062;10.338;2024-03-25T01:02:00;3.10;89.70
76996;DHT22;65929;49.062;10.338;2024-03-25T01:03:01;3.10;89.80
76996;DHT22;65929;49.062;10.338;2024-03-25T01:04:02;3.00;89.80
76996;DHT22;65929;49.062;10.338;2024-03-25T01:05:05;3.00;89.80
76996;DHT22;65929;49.062;10.338;2024-03-25T01:06:09;3.00;89.80
76996;DHT22;65929;49.062;10.338;2024-03-25T01:07:10;3.00;89.90
76996;DHT22;65929;49.062;10.338;2024-03-25T01:08:10;3.00;89.90
76996;DHT22;65929;49.062;10.338;2024-03-25T01:09:14;3.00;90.10
76996;DHT22;65929;49.062;10.338;2024-03-25T01:10:15;2.90;90.20
76996;DHT22;65929;49.062;10.338;2024-03-25T01:11:16;2.90;90.10
76996;DHT22;65929;49.062;10.338;2024-03-25T01:12:17;2.90;90.20
76996;DHT22;65929;49.062;10.338;2024-03-25T01:13:20;2.90;90.10
76996;DHT22;65929;49.062;10.338;2024-03-25T01:14:21;2.90;90.00
76996;DHT22;65929;49.062;10.338;2024-03-25T01:15:22;2.90;89.80
76996;DHT22;65929;49.062;10.338;2024-03-25T01:16:23;3.00;89.90
76996;DHT22;65929;49.062;10.338;2024-03-25T01:17:23;2.90;90.00
76996;DHT22;65929;49.062;10.338;2024-03-25T01:18:24;2.90;90.00
76996;DHT22;65929;49.062;10.338;2024-03-25T01:19:25;2.90;89.90
76996;DHT22;65929;49.062;10.338;2024-03-25T01:20:26;2.90;89.90
76996;DHT22;65929;49.062;10.338;2024-03-25T01:21:27;2.90;90.00
76996;DHT22;65929;49.062;10.338;2024-03-25T01:22:28;2.90;90.10
76996;DHT22;65929;49.062;10.338;2024-03-25T01:23:29;2.90;90.00
76996;DHT22;65929;49.062;10.338;2024-03-25T01:24:30;2.90;90.00
76996;DHT22;65929;49.062;10.338;2024-03-25T01:25:31;2.90;90.00
76996;DHT22;65929;49.062;10.338;2024-03-25T01:26:32;2.90;90.10
76996;DHT22;65929;49.062;10.338;2024-03-25T01:27:33;2.90;90.30
76996;DHT22;65929;49.062;10.338;2024-03-25T01:28:35;2.90;90.20
76996;DHT22;65929;49.062;10.338;2024-03-25T01:29:36;2.90;90.40
76996;DHT22;65929;49.062;10.338;2024-03-25T01:30:37;2.90;90.50
76996;DHT22;65929;49.062;10.338;2024-03-25T01:31:39;2.90;90.40
76996;DHT22;65929;49.062;10.338;2024-03-25T01:32:40;2.90;90.30
76996;DHT22;65929;49.062;10.338;2024-03-25T01:33:41;2.90;90.30
76996;DHT22;65929;49.062;10.338;2024-03-25T01:34:43;2.90;90.30
76996;DHT22;65929;49.062;10.338;2024-03-25T01:35:43;2.90;90.30
76996;DHT22;65929;49.062;10.338;2024-03-25T01:36:44;2.90;90.30
76996;DHT22;65929;49.062;10.338;2024-03-25T01:37:45;2.90;90.40
76996;DHT22;65929;49.062;10.338;2024-03-25T01:38:46;2.90;90.40
76996;DHT22;65929;49.062;10.338;2024-03-25T01:39:47;2.90;90.30
76996;DHT22;65929;49.062;10.338;2024-03-25T01:40:48;2.90;89.90
76996;DHT22;65929;49.062;10.338;2024-03-25T01:41:49;2.90;90.00
76996;DHT22;65929;49.062;10.338;2024-03-25T01:42:55;2.90;89.90
76996;DHT22;65929;49.062;10.338;2024-03-25T01:43:58;2.90;89.80
76996;DHT22;65929;49.062;10.338;2024-03-25T01:44:58;2.90;89.90
76996;DHT22;65929;49.062;10.338;2024-03-25T01:45:59;2.90;90.00
76996;DHT22;65929;49.062;10.338;2024-03-25T01:47:00;2.90;89.80
76996;DHT22;65929;49.062;10.338;2024-03-25T01:48:03;3.00;90.00
76996;DHT22;65929;49.062;10.338;2024-03-25T01:49:04;2.90;90.20
76996;DHT22;65929;49.062;10.338;2024-03-25T01:50:07;3.00;90.10
76996;DHT22;65929;49.062;10.338;2024-03-25T01:51:08;2.90;90.10
76996;DHT22;65929;49.062;10.338;2024-03-25T01:52:09;3.00;90.00
76996;DHT22;65929;49.062;10.338;2024-03-25T01:53:11;3.00;89.80
76996;DHT22;65929;49.062;10.338;2024-03-25T01:54:13;2.90;89.80
76996;DHT22;65929;49.062;10.338;2024-03-25T01:55:20;3.00;89.70
76996;DHT22;65929;49.062;10.338;2024-03-25T01:56:23;2.90;89.80
76996;DHT22;65929;49.062;10.338;2024-03-25T01:57:25;2.90;89.70
76996;DHT22;65929;49.062;10.338;2024-03-25T01:58:27;2.90;89.70
76996;DHT22;65929;49.062;10.338;2024-03-25T01:59:29;2.90;89.80
76996;DHT22;65929;49.062;10.338;2024-03-25T02:00:31;2.80;90.00
76996;DHT22;65929;49.062;10.338;2024-03-25T02:01:33;2.80;90.00
76996;DHT22;65929;49.062;10.338;2024-03-25T02:02:34;2.80;90.00
76996;DHT22;65929;49.062;10.338;2024-03-25T02:03:36;2.80;90.10
76996;DHT22;65929;49.062;10.338;2024-03-25T02:04:39;2.80;90.10
76996;DHT22;65929;49.062;10.338;2024-03-25T02:05:40;2.80;90.20
76996;DHT22;65929;49.062;10.338;2024-03-25T02:06:41;2.80;90.30
76996;DHT22;65929;49.062;10.338;2024-03-25T02:07:43;2.80;90.30
76996;DHT22;65929;49.062;10.338;2024-03-25T02:08:45;2.80;90.40
76996;DHT22;65929;49.062;10.338;2024-03-25T02:09:46;2.80;90.50
76996;DHT22;65929;49.062;10.338;2024-03-25T02:10:47;2.80;90.40
76996;DHT22;65929;49.062;10.338;2024-03-25T02:11:48;2.80;90.50
76996;DHT22;65929;49.062;10.338;2024-03-25T02:12:50;2.80;90.40
76996;DHT22;65929;49.062;10.338;2024-03-25T02:13:51;2.80;90.30
76996;DHT22;65929;49.062;10.338;2024-03-25T02:14:53;2.80;90.30
76996;DHT22;65929;49.062;10.338;2024-03-25T02:15:55;2.80;90.30
76996;DHT22;65929;49.062;10.338;2024-03-25T02:16:56;2.80;90.20
76996;DHT22;65929;49.062;10.338;2024-03-25T02:17:57;2.90;90.00
76996;DHT22;65929;49.062;10.338;2024-03-25T02:18:58;2.90;90.00
76996;DHT22;65929;49.062;10.338;2024-03-25T02:19:59;2.90;90.10
76996;DHT22;65929;49.062;10.338;2024-03-25T02:21:00;2.90;90.20
76996;DHT22;65929;49.062;10.338;2024-03-25T02:22:02;2.90;90.30
76996;DHT22;65929;49.062;10.338;2024-03-25T02:23:03;2.90;90.20
76996;DHT22;65929;49.062;10.338;2024-03-25T02:24:05;2.90;90.10
76996;DHT22;65929;49.062;10.338;2024-03-25T02:25:10;2.90;90.00
76996;DHT22;65929;49.062;10.338;2024-03-25T02:26:12;2.90;89.90
76996;DHT22;65929;49.062;10.338;2024-03-25T02:27:13;2.90;90.00
76996;DHT22;65929;49.062;10.338;2024-03-25T02:28:15;2.90;89.80
76996;DHT22;65929;49.062;10.338;2024-03-25T02:29:16;2.90;89.60
76996;DHT22;65929;49.062;10.338;2024-03-25T02:30:17;3.00;89.80
76996;DHT22;65929;49.062;10.338;2024-03-25T02:31:18;3.00;89.80
76996;DHT22;65929;49.062;10.338;2024-03-25T02:32:19;3.00;90.00
76996;DHT22;65929;49.062;10.338;2024-03-25T02:33:19;3.00;89.90
76996;DHT22;65929;49.062;10.338;2024-03-25T02:34:20;3.00;90.00
76996;DHT22;65929;49.062;10.338;2024-03-25T02:35:22;3.00;90.00
76996;DHT22;65929;49.062;10.338;2024-03-25T02:36:25;3.00;89.70
76996;DHT22;65929;49.062;10.338;2024-03-25T02:37:26;3.00;89.70
76996;DHT22;65929;49.062;10.338;2024-03-25T02:38:27;3.00;89.50
76996;DHT22;65929;49.062;10.338;2024-03-25T02:39:28;3.10;89.50
76996;DHT22;65929;49.062;10.338;2024-03-25T02:40:30;3.10;89.80
76996;DHT22;65929;49.062;10.338;2024-03-25T02:41:32;3.10;90.00
76996;DHT22;65929;49.062;10.338;2024-03-25T02:42:35;3.10;89.90
76996;DHT22;65929;49.062;10.338;2024-03-25T02:43:37;3.10;89.40
76996;DHT22;65929;49.062;10.338;2024-03-25T02:44:38;3.10;89.40
76996;DHT22;65929;49.062;10.338;2024-03-25T02:45:39;3.10;89.30
76996;DHT22;65929;49.062;10.338;2024-03-25T02:46:40;3.10;89.40
76996;DHT22;65929;49.062;10.338;2024-03-25T02:47:43;3.10;89.50
76996;DHT22;65929;49.062;10.338;2024-03-25T02:48:46;3.10;89.50
76996;DHT22;65929;49.062;10.338;2024-03-25T02:49:47;3.10;89.50
76996;DHT22;65929;49.062;10.338;2024-03-25T02:50:48;3.10;89.40
76996;DHT22;65929;49.062;10.338;2024-03-25T02:51:48;3.10;89.40
76996;DHT22;65929;49.062;10.338;2024-03-25T02:52:49;3.10;89.50
76996;DHT22;65929;49.062;10.338;2024-03-25T02:53:50;3.10;89.40
76996;DHT22;65929;49.062;10.338;2024-03-25T02:54:51;3.10;89.30
76996;DHT22;65929;49.062;10.338;2024-03-25T02:55:52;3.10;89.50
76996;DHT22;65929;49.062;10.338;2024-03-25T02:56:54;3.10;89.40
76996;DHT22;65929;49.062;10.338;2024-03-25T02:57:55;3.10;89.40
76996;DHT22;65929;49.062;10.338;2024-03-25T02:58:56;3.10;89.40
76996;DHT22;65929;49.062;10.338;2024-03-25T02:59:57;3.10;89.50
76996;DHT22;65929;49.062;10.338;2024-03-25T03:00:58;3.10;89.60
76996;DHT22;65929;49.062;10.338;2024-03-25T03:01:59;3.10;89.40
76996;DHT22;65929;49.062;10.338;2024-03-25T03:03:00;3.10;89.40
76996;DHT22;65929;49.062;10.338;2024-03-25T03:04:01;3.20;88.90
76996;DHT22;65929;49.062;10.338;2024-03-25T03:05:02;3.20;89.10
76996;DHT22;65929;49.062;10.338;2024-03-25T03:06:05;3.20;89.00
76996;DHT22;65929;49.062;10.338;2024-03-25T03:07:05;3.20;88.80
76996;DHT22;65929;49.062;10.338;2024-03-25T03:08:06;3.30;88.50
76996;DHT22;65929;49.062;10.338;2024-03-25T03:09:07;3.30;88.70
76996;DHT22;65929;49.062;10.338;2024-03-25T03:10:09;3.30;88.60
76996;DHT22;65929;49.062;10.338;2024-03-25T03:11:10;3.30;88.70
76996;DHT22;65929;49.062;10.338;2024-03-25T03:12:12;3.30;88.60
76996;DHT22;65929;49.062;10.338;2024-03-25T03:13:13;3.30;88.60
76996;DHT22;65929;49.062;10.338;2024-03-25T03:14:14;3.30;88.70
76996;DHT22;65929;49.062;10.338;2024-03-25T03:15:15;3.30;88.50
76996;DHT22;65929;49.062;10.338;2024-03-25T03:16:16;3.30;88.40
76996;DHT22;65929;49.062;10.338;2024-03-25T03:17:16;3.30;88.50
76996;DHT22;65929;49.062;10.338;2024-03-25T03:18:17;3.30;88.50
76996;DHT22;65929;49.062;10.338;2024-03-25T03:19:18;3.30;88.70
76996;DHT22;65929;49.062;10.338;2024-03-25T03:20:19;3.30;88.50
76996;DHT22;65929;49.062;10.338;2024-03-25T03:21:20;3.30;88.70
76996;DHT22;65929;49.062;10.338;2024-03-25T03:22:21;3.30;88.60
76996;DHT22;65929;49.062;10.338;2024-03-25T03:23:22;3.30;88.60
76996;DHT22;65929;49.062;10.338;2024-03-25T03:24:23;3.30;88.70
76996;DHT22;65929;49.062;10.338;2024-03-25T03:25:24;3.30;88.80
76996;DHT22;65929;49.062;10.338;2024-03-25T03:26:25;3.30;89.00
76996;DHT22;65929;49.062;10.338;2024-03-25T03:27:28;3.30;89.00
76996;DHT22;65929;49.062;10.338;2024-03-25T03:28:31;3.30;89.00
76996;DHT22;65929;49.062;10.338;2024-03-25T03:29:31;3.30;89.00
76996;DHT22;65929;49.062;10.338;2024-03-25T03:30:32;3.30;89.10
76996;DHT22;65929;49.062;10.338;2024-03-25T03:31:34;3.30;89.00
76996;DHT22;65929;49.062;10.338;2024-03-25T03:32:35;3.30;89.10
76996;DHT22;65929;49.062;10.338;2024-03-25T03:33:36;3.30;89.00
76996;DHT22;65929;49.062;10.338;2024-03-25T03:34:37;3.30;88.90
76996;DHT22;65929;49.062;10.338;2024-03-25T03:35:38;3.30;88.70
76996;DHT22;65929;49.062;10.338;2024-03-25T03:36:38;3.30;88.90
76996;DHT22;65929;49.062;10.338;2024-03-25T03:37:41;3.20;89.00
76996;DHT22;65929;49.062;10.338;2024-03-25T03:38:42;3.20;89.20
76996;DHT22;65929;49.062;10.338;2024-03-25T03:39:42;3.20;89.40
76996;DHT22;65929;49.062;10.338;2024-03-25T03:40:47;3.20;89.60
76996;DHT22;65929;49.062;10.338;2024-03-25T03:41:55;3.10;89.70
76996;DHT22;65929;49.062;10.338;2024-03-25T03:42:58;3.10;89.50
76996;DHT22;65929;49.062;10.338;2024-03-25T03:43:59;3.10;89.60
76996;DHT22;65929;49.062;10.338;2024-03-25T03:44:59;3.10;89.40
76996;DHT22;65929;49.062;10.338;2024-03-25T03:46:00;3.10;89.50
76996;DHT22;65929;49.062;10.338;2024-03-25T03:47:02;3.10;89.50
76996;DHT22;65929;49.062;10.338;2024-03-25T03:48:03;3.00;89.70
76996;DHT22;65929;49.062;10.338;2024-03-25T03:49:04;3.00;89.70
76996;DHT22;65929;49.062;10.338;2024-03-25T03:50:06;3.00;89.80
76996;DHT22;65929;49.062;10.338;2024-03-25T03:51:08;2.90;89.90
76996;DHT22;65929;49.062;10.338;2024-03-25T03:52:09;2.90;90.10
76996;DHT22;65929;49.062;10.338;2024-03-25T03:53:10;2.90;90.30
76996;DHT22;65929;49.062;10.338;2024-03-25T03:54:11;2.80;90.40
76996;DHT22;65929;49.062;10.338;2024-03-25T03:55:12;2.80;90.40
76996;DHT22;65929;49.062;10.338;2024-03-25T03:56:13;2.80;90.60
76996;DHT22;65929;49.062;10.338;2024-03-25T03:57:14;2.80;90.70
76996;DHT22;65929;49.062;10.338;2024-03-25T03:58:16;2.70;90.70
76996;DHT22;65929;49.062;10.338;2024-03-25T03:59:17;2.70;90.80
76996;DHT22;65929;49.062;10.338;2024-03-25T04:00:18;2.70;91.10
76996;DHT22;65929;49.062;10.338;2024-03-25T04:01:19;2.60;91.30
76996;DHT22;65929;49.062;10.338;2024-03-25T04:02:20;2.60;91.50
76996;DHT22;65929;49.062;10.338;2024-03-25T04:03:21;2.60;91.50
76996;DHT22;65929;49.062;10.338;2024-03-25T04:04:22;2.60;91.50
76996;DHT22;65929;49.062;10.338;2024-03-25T04:05:23;2.60;91.50
76996;DHT22;65929;49.062;10.338;2024-03-25T04:06:24;2.60;91.40
76996;DHT22;65929;49.062;10.338;2024-03-25T04:07:25;2.60;91.50
76996;DHT22;65929;49.062;10.338;2024-03-25T04:08:27;2.60;91.40
76996;DHT22;65929;49.062;10.338;2024-03-25T04:09:28;2.60;91.40
76996;DHT22;65929;49.062;10.338;2024-03-25T04:10:29;2.60;91.40
76996;DHT22;65929;49.062;10.338;2024-03-25T04:11:31;2.60;91.30
76996;DHT22;65929;49.062;10.338;2024-03-25T04:12:32;2.60;91.30
76996;DHT22;65929;49.062;10.338;2024-03-25T04:13:34;2.60;91.20
76996;DHT22;65929;49.062;10.338;2024-03-25T04:14:35;2.50;91.30
76996;DHT22;65929;49.062;10.338;2024-03-25T04:15:36;2.50;91.30
76996;DHT22;65929;49.062;10.338;2024-03-25T04:16:37;2.50;91.40
76996;DHT22;65929;49.062;10.338;2024-03-25T04:17:38;2.50;91.50
76996;DHT22;65929;49.062;10.338;2024-03-25T04:18:39;2.50;91.70
76996;DHT22;65929;49.062;10.338;2024-03-25T04:19:42;2.50;91.70
76996;DHT22;65929;49.062;10.338;2024-03-25T04:20:43;2.50;91.70
76996;DHT22;65929;49.062;10.338;2024-03-25T04:21:44;2.50;91.70
76996;DHT22;65929;49.062;10.338;2024-03-25T04:22:46;2.40;91.80
76996;DHT22;65929;49.062;10.338;2024-03-25T04:23:47;2.50;91.90
76996;DHT22;65929;49.062;10.338;2024-03-25T04:24:49;2.50;91.80
76996;DHT22;65929;49.062;10.338;2024-03-25T04:25:50;2.50;90.50
76996;DHT22;65929;49.062;10.338;2024-03-25T04:26:51;2.50;90.20
76996;DHT22;65929;49.062;10.338;2024-03-25T04:27:52;2.60;90.30
76996;DHT22;65929;49.062;10.338;2024-03-25T04:28:55;2.60;90.20
76996;DHT22;65929;49.062;10.338;2024-03-25T04:29:55;2.70;90.20
76996;DHT22;65929;49.062;10.338;2024-03-25T04:30:56;2.60;90.30
76996;DHT22;65929;49.062;10.338;2024-03-25T04:31:57;2.70;90.30
76996;DHT22;65929;49.062;10.338;2024-03-25T04:32:58;2.70;90.20
76996;DHT22;65929;49.062;10.338;2024-03-25T04:33:59;2.70;90.20
76996;DHT22;65929;49.062;10.338;2024-03-25T04:35:00;2.70;90.30
76996;DHT22;65929;49.062;10.338;2024-03-25T04:36:01;2.70;90.30
76996;DHT22;65929;49.062;10.338;2024-03-25T04:37:02;2.70;90.40
76996;DHT22;65929;49.062;10.338;2024-03-25T04:38:03;2.70;90.40
76996;DHT22;65929;49.062;10.338;2024-03-25T04:39:04;2.70;90.40
76996;DHT22;65929;49.062;10.338;2024-03-25T04:40:10;2.70;90.40
76996;DHT22;65929;49.062;10.338;2024-03-25T04:41:11;2.70;90.10
76996;DHT22;65929;49.062;10.338;2024-03-25T04:42:11;2.70;89.70
76996;DHT22;65929;49.062;10.338;2024-03-25T04:43:12;2.80;89.50
76996;DHT22;65929;49.062;10.338;2024-03-25T04:44:15;2.70;89.40
76996;DHT22;65929;49.062;10.338;2024-03-25T04:45:15;2.80;89.40
76996;DHT22;65929;49.062;10.338;2024-03-25T04:46:16;2.70;89.20
76996;DHT22;65929;49.062;10.338;2024-03-25T04:47:17;2.80;88.80
76996;DHT22;65929;49.062;10.338;2024-03-25T04:48:18;2.80;88.90
76996;DHT22;65929;49.062;10.338;2024-03-25T04:49:19;2.80;88.80
76996;DHT22;65929;49.062;10.338;2024-03-25T04:50:20;2.80;88.90
76996;DHT22;65929;49.062;10.338;2024-03-25T04:51:21;2.70;89.20
76996;DHT22;65929;49.062;10.338;2024-03-25T04:52:21;2.70;89.60
76996;DHT22;65929;49.062;10.338;2024-03-25T04:53:24;2.70;89.60
76996;DHT22;65929;49.062;10.338;2024-03-25T04:54:25;2.70;89.60
76996;DHT22;65929;49.062;10.338;2024-03-25T04:55:26;2.70;89.50
76996;DHT22;65929;49.062;10.338;2024-03-25T04:56:27;2.80;89.50
76996;DHT22;65929;49.062;10.338;2024-03-25T04:57:28;2.70;89.50
76996;DHT22;65929;49.062;10.338;2024-03-25T04:58:28;2.80;89.50
76996;DHT22;65929;49.062;10.338;2024-03-25T04:59:31;2.70;89.50
76996;DHT22;65929;49.062;10.338;2024-03-25T05:00:32;2.70;89.60
76996;DHT22;65929;49.062;10.338;2024-03-25T05:01:32;2.70;89.50
76996;DHT22;65929;49.062;10.338;2024-03-25T05:02:33;2.70;89.70
76996;DHT22;65929;49.062;10.338;2024-03-25T05:03:34;2.60;89.70
76996;DHT22;65929;49.062;10.338;2024-03-25T05:04:35;2.50;89.90
76996;DHT22;65929;49.062;10.338;2024-03-25T05:05:36;2.50;90.00
76996;DHT22;65929;49.062;10.338;2024-03-25T05:06:37;2.50;90.00
76996;DHT22;65929;49.062;10.338;2024-03-25T05:07:37;2.50;90.00
76996;DHT22;65929;49.062;10.338;2024-03-25T05:08:38;2.50;90.00
76996;DHT22;65929;49.062;10.338;2024-03-25T05:09:39;2.50;90.30
76996;DHT22;65929;49.062;10.338;2024-03-25T05:10:40;2.50;90.50
76996;DHT22;65929;49.062;10.338;2024-03-25T05:11:41;2.40;90.40
76996;DHT22;65929;49.062;10.338;2024-03-25T05:12:42;2.50;90.50
76996;DHT22;65929;49.062;10.338;2024-03-25T05:13:44;2.40;90.40
76996;DHT22;65929;49.062;10.338;2024-03-25T05:14:47;2.40;90.40
76996;DHT22;65929;49.062;10.338;2024-03-25T05:15:50;2.40;90.50
76996;DHT22;65929;49.062;10.338;2024-03-25T05:16:51;2.30;90.70
76996;DHT22;65929;49.062;10.338;2024-03-25T05:17:54;2.30;90.80
76996;DHT22;65929;49.062;10.338;2024-03-25T05:18:55;2.30;90.70
76996;DHT22;65929;49.062;10.338;2024-03-25T05:19:55;2.30;90.80
76996;DHT22;65929;49.062;10.338;2024-03-25T05:20:56;2.30;90.80
76996;DHT22;65929;49.062;10.338;2024-03-25T05:21:57;2.30;90.70
76996;DHT22;65929;49.062;10.338;2024-03-25T05:22:58;2.30;90.60
76996;DHT22;65929;49.062;10.338;2024-03-25T05:23:59;2.30;90.60
76996;DHT22;65929;49.062;10.338;2024-03-25T05:25:00;2.30;90.60
76996;DHT22;65929;49.062;10.338;2024-03-25T05:26:01;2.30;90.50
76996;DHT22;65929;49.062;10.338;2024-03-25T05:27:02;2.30;90.60
76996;DHT22;65929;49.062;10.338;2024-03-25T05:28:03;2.30;90.60
76996;DHT22;65929;49.062;10.338;2024-03-25T05:29:04;2.30;90.40
76996;DHT22;65929;49.062;10.338;2024-03-25T05:30:07;2.30;90.30
76996;DHT22;65929;49.062;10.338;2024-03-25T05:31:08;2.30;90.40
76996;DHT22;65929;49.062;10.338;2024-03-25T05:32:09;2.30;90.30
76996;DHT22;65929;49.062;10.338;2024-03-25T05:33:10;2.30;90.20
76996;DHT22;65929;49.062;10.338;2024-03-25T05:34:11;2.30;90.10
76996;DHT22;65929;49.062;10.338;2024-03-25T05:35:13;2.20;90.10
76996;DHT22;65929;49.062;10.338;2024-03-25T05:36:14;2.20;90.20
76996;DHT22;65929;49.062;10.338;2024-03-25T05:37:15;2.20;90.10
76996;DHT22;65929;49.062;10.338;2024-03-25T05:38:16;2.20;90.20
76996;DHT22;65929;49.062;10.338;2024-03-25T05:39:17;2.20;90.20
76996;DHT22;65929;49.062;10.338;2024-03-25T05:40:18;2.20;90.20
76996;DHT22;65929;49.062;10.338;2024-03-25T05:41:19;2.20;90.30
76996;DHT22;65929;49.062;10.338;2024-03-25T05:42:20;2.10;90.40
76996;DHT22;65929;49.062;10.338;2024-03-25T05:43:21;2.20;90.40
76996;DHT22;65929;49.062;10.338;2024-03-25T05:44:22;2.10;90.40
76996;DHT22;65929;49.062;10.338;2024-03-25T05:45:24;2.10;90.40
76996;DHT22;65929;49.062;10.338;2024-03-25T05:46:25;2.10;90.40
76996;DHT22;65929;49.062;10.338;2024-03-25T05:47:26;2.10;90.50
76996;DHT22;65929;49.062;10.338;2024-03-25T05:48:27;2.10;90.60
76996;DHT22;65929;49.062;10.338;2024-03-25T05:49:28;2.20;90.50
76996;DHT22;65929;49.062;10.338;2024-03-25T05:50:29;2.20;90.60
76996;DHT22;65929;49.062;10.338;2024-03-25T05:51:30;2.20;90.60
76996;DHT22;65929;49.062;10.338;2024-03-25T05:52:31;2.20;90.60
76996;DHT22;65929;49.062;10.338;2024-03-25T05:53:32;2.30;90.40
76996;DHT22;65929;49.062;10.338;2024-03-25T05:54:32;2.40;90.10
76996;DHT22;65929;49.062;10.338;2024-03-25T05:55:33;2.40;90.00
76996;DHT22;65929;49.062;10.338;2024-03-25T05:56:34;2.40;89.80
76996;DHT22;65929;49.062;10.338;2024-03-25T05:57:35;2.50;89.60
76996;DHT22;65929;49.062;10.338;2024-03-25T05:58:36;2.50;89.50
76996;DHT22;65929;49.062;10.338;2024-03-25T05:59:37;2.50;89.30
76996;DHT22;65929;49.062;10.338;2024-03-25T06:00:39;2.60;89.10
76996;DHT22;65929;49.062;10.338;2024-03-25T06:01:40;2.70;89.00
76996;DHT22;65929;49.062;10.338;2024-03-25T06:02:41;2.70;88.90
76996;DHT22;65929;49.062;10.338;2024-03-25T06:03:42;2.70;88.80
76996;DHT22;65929;49.062;10.338;2024-03-25T06:04:43;2.80;88.70
76996;DHT22;65929;49.062;10.338;2024-03-25T06:05:44;2.80;88.80
76996;DHT22;65929;49.062;10.338;2024-03-25T06:06:45;2.80;88.60
76996;DHT22;65929;49.062;10.338;2024-03-25T06:07:46;2.90;88.60
76996;DHT22;65929;49.062;10.338;2024-03-25T06:08:46;2.90;88.40
76996;DHT22;65929;49.062;10.338;2024-03-25T06:09:47;3.00;88.10
76996;DHT22;65929;49.062;10.338;2024-03-25T06:10:48;3.00;88.10
76996;DHT22;65929;49.062;10.338;2024-03-25T06:11:49;3.10;88.00
76996;DHT22;65929;49.062;10.338;2024-03-25T06:12:50;3.10;88.10
76996;DHT22;65929;49.062;10.338;2024-03-25T06:13:51;3.10;88.10
76996;DHT22;65929;49.062;10.338;2024-03-25T06:14:52;3.10;88.10
76996;DHT22;65929;49.062;10.338;2024-03-25T06:15:54;3.10;87.60
76996;DHT22;65929;49.062;10.338;2024-03-25T06:16:55;3.20;88.00
76996;DHT22;65929;49.062;10.338;2024-03-25T06:17:56;3.20;88.40
76996;DHT22;65929;49.062;10.338;2024-03-25T06:18:57;3.30;88.60
76996;DHT22;65929;49.062;10.338;2024-03-25T06:19:58;3.30;88.40
76996;DHT22;65929;49.062;10.338;2024-03-25T06:20:59;3.30;88.30
76996;DHT22;65929;49.062;10.338;2024-03-25T06:22:00;3.30;87.90
76996;DHT22;65929;49.062;10.338;2024-03-25T06:23:01;3.30;87.80
76996;DHT22;65929;49.062;10.338;2024-03-25T06:24:05;3.40;87.80
76996;DHT22;65929;49.062;10.338;2024-03-25T06:25:06;3.40;87.90
76996;DHT22;65929;49.062;10.338;2024-03-25T06:26:07;3.40;88.20
76996;DHT22;65929;49.062;10.338;2024-03-25T06:27:09;3.40;87.90